Time,TemperatureF,DewpointF,PressureIn,WindDirection,WindDirectionDegrees,WindSpeedMPH,WindSpeedGustMPH,Humidity,HourlyPrecipIn,Conditions,Clouds,dailyrainin,SoftwareType,DateUTC
2013-11-21 00:08:00,37.9,35.8,29.93,SE,135,1.7,-999.0,92,-99.99,,,0.00,Acu-Link.com,2013-11-21 06:08:00,
2013-11-21 00:24:00,37.6,35.8,29.93,SSE,157,0.0,-999.0,93,-99.99,,,0.00,Acu-Link.com,2013-11-21 06:24:00,
2013-11-21 00:39:00,37.4,35.6,29.94,East,90,1.1,-999.0,93,-99.99,,,0.00,Acu-Link.com,2013-11-21 06:39:00,
2013-11-21 00:54:00,37.0,35.4,29.95,South,180,0.0,-999.0,94,-99.99,,,0.00,Acu-Link.com,2013-11-21 06:54:00,
2013-11-21 01:09:00,36.5,34.9,29.95,ESE,112,0.0,-999.0,94,-99.99,,,0.00,Acu-Link.com,2013-11-21 07:09:00,
2013-11-21 01:24:00,35.8,34.5,29.96,West,270,0.0,-999.0,95,-99.99,,,0.00,Acu-Link.com,2013-11-21 07:24:00,
2013-11-21 01:40:00,35.6,34.8,29.97,NE,45,0.0,-999.0,97,-99.99,,,0.00,Acu-Link.com,2013-11-21 07:40:00,
2013-11-21 01:55:00,35.8,35.3,29.98,West,270,0.0,-999.0,98,-99.99,,,0.00,Acu-Link.com,2013-11-21 07:55:00,
2013-11-21 02:10:00,36.3,35.8,29.99,NNW,337,0.0,-999.0,98,-99.99,,,0.00,Acu-Link.com,2013-11-21 08:10:00,
2013-11-21 02:25:00,36.9,36.1,29.99,SW,225,0.0,-999.0,97,-99.99,,,0.00,Acu-Link.com,2013-11-21 08:25:00,
2013-11-21 02:40:00,37.4,36.4,29.99,WSW,247,2.2,-999.0,96,-99.99,,,0.00,Acu-Link.com,2013-11-21 08:40:00,
2013-11-21 02:56:00,37.8,36.5,30.00,WSW,247,2.2,-999.0,95,-99.99,,,0.00,Acu-Link.com,2013-11-21 08:56:00,
2013-11-21 03:11:00,37.8,36.2,30.00,South,180,0.0,-999.0,94,-99.99,,,0.00,Acu-Link.com,2013-11-21 09:11:00,
2013-11-21 03:26:00,37.4,35.8,30.00,West,270,0.0,-999.0,94,-99.99,,,0.00,Acu-Link.com,2013-11-21 09:26:00,
2013-11-21 03:41:00,37.2,35.6,30.00,NNW,337,2.2,-999.0,94,-99.99,,,0.00,Acu-Link.com,2013-11-21 09:41:00,
2013-11-21 03:56:00,37.0,35.4,30.02,NNW,337,3.2,-999.0,94,-99.99,,,0.00,Acu-Link.com,2013-11-21 09:56:00,
2013-11-21 04:12:00,37.4,35.8,30.02,NNW,337,5.8,-999.0,94,-99.99,,,0.00,Acu-Link.com,2013-11-21 10:12:00,
2013-11-21 04:27:00,37.2,35.6,30.03,NNW,337,5.8,-999.0,94,-99.99,,,0.00,Acu-Link.com,2013-11-21 10:27:00,
2013-11-21 04:42:00,36.7,35.1,30.05,NNW,337,6.3,-999.0,94,-99.99,,,0.00,Acu-Link.com,2013-11-21 10:42:00,
2013-11-21 04:57:00,36.5,34.7,30.06,NW,315,8.3,-999.0,93,-99.99,,,0.00,Acu-Link.com,2013-11-21 10:57:00,
2013-11-21 05:13:00,36.3,34.2,30.06,NW,315,6.3,-999.0,92,-99.99,,,0.00,Acu-Link.com,2013-11-21 11:13:00,
2013-11-21 05:28:00,36.1,34.0,30.07,WNW,292,4.2,-999.0,92,-99.99,,,0.00,Acu-Link.com,2013-11-21 11:28:00,
2013-11-21 05:43:00,35.8,33.4,30.08,NW,315,10.9,-999.0,91,-99.99,,,0.00,Acu-Link.com,2013-11-21 11:43:00,
2013-11-21 05:58:00,35.6,33.0,30.09,NNW,337,8.9,-999.0,90,-99.99,,,0.00,Acu-Link.com,2013-11-21 11:58:00,
2013-11-21 06:13:00,35.6,33.0,30.10,NW,315,10.9,-999.0,90,-99.99,,,0.00,Acu-Link.com,2013-11-21 12:13:00,
2013-11-21 06:29:00,35.2,32.6,30.12,NW,315,6.8,-999.0,90,-99.99,,,0.00,Acu-Link.com,2013-11-21 12:29:00,
2013-11-21 06:44:00,35.1,32.5,30.13,NNE,22,10.9,-999.0,90,-99.99,,,0.00,Acu-Link.com,2013-11-21 12:44:00,
2013-11-21 06:59:00,35.1,32.5,30.14,NNW,337,9.4,-999.0,90,-99.99,,,0.00,Acu-Link.com,2013-11-21 12:59:00,
2013-11-21 07:14:00,34.9,32.3,30.14,North,0,12.5,-999.0,90,-99.99,,,0.00,Acu-Link.com,2013-11-21 13:14:00,
2013-11-21 07:29:00,34.7,32.3,30.13,NW,315,10.9,-999.0,91,-99.99,,,0.00,Acu-Link.com,2013-11-21 13:29:00,
2013-11-21 07:45:00,34.7,32.3,30.14,NNE,22,14.0,-999.0,91,-99.99,,,0.00,Acu-Link.com,2013-11-21 13:45:00,
2013-11-21 08:00:00,34.5,32.1,30.14,NNW,337,16.1,-999.0,91,-99.99,,,0.00,Acu-Link.com,2013-11-21 14:00:00,
2013-11-21 08:15:00,34.2,32.1,30.15,WNW,292,12.5,-999.0,92,-99.99,,,0.00,Acu-Link.com,2013-11-21 14:15:00,
2013-11-21 08:30:00,34.0,32.2,30.16,NNW,337,13.5,-999.0,93,-99.99,,,0.00,Acu-Link.com,2013-11-21 14:30:00,
2013-11-21 08:46:00,33.4,32.1,30.18,North,0,11.9,-999.0,95,-99.99,,,0.00,Acu-Link.com,2013-11-21 14:46:00,
2013-11-21 09:01:00,33.3,32.3,30.18,NNW,337,17.1,-999.0,96,-99.99,,,0.00,Acu-Link.com,2013-11-21 15:01:00,
2013-11-21 09:16:00,33.1,32.1,30.19,NW,315,16.1,-999.0,96,-99.99,,,0.00,Acu-Link.com,2013-11-21 15:16:00,
2013-11-21 09:32:00,32.9,31.6,30.20,WNW,292,13.5,-999.0,95,-99.99,,,0.00,Acu-Link.com,2013-11-21 15:32:00,
2013-11-21 09:47:00,32.9,31.4,30.21,WNW,292,11.9,-999.0,94,-99.99,,,0.00,Acu-Link.com,2013-11-21 15:47:00,
2013-11-21 10:02:00,32.5,30.7,30.22,NNW,337,17.1,-999.0,93,-99.99,,,0.00,Acu-Link.com,2013-11-21 16:02:00,
2013-11-21 10:17:00,32.0,30.2,30.23,NW,315,17.6,-999.0,93,-99.99,,,0.00,Acu-Link.com,2013-11-21 16:17:00,
2013-11-21 10:33:00,31.6,29.8,30.24,NNE,22,9.9,-999.0,93,-99.99,,,0.00,Acu-Link.com,2013-11-21 16:33:00,
2013-11-21 10:48:00,31.5,29.7,30.24,NNW,337,10.4,-999.0,93,-99.99,,,0.00,Acu-Link.com,2013-11-21 16:48:00,
2013-11-21 11:03:00,31.1,29.6,30.25,NNW,337,13.5,-999.0,94,-99.99,,,0.00,Acu-Link.com,2013-11-21 17:03:00,
2013-11-21 11:18:00,30.9,29.4,30.25,NW,315,11.4,-999.0,94,-99.99,,,0.00,Acu-Link.com,2013-11-21 17:18:00,
2013-11-21 11:34:00,30.9,29.4,30.25,NW,315,11.4,-999.0,94,-99.99,,,0.00,Acu-Link.com,2013-11-21 17:34:00,
2013-11-21 11:49:00,30.4,28.9,30.25,NNW,337,12.5,-999.0,94,-99.99,,,0.00,Acu-Link.com,2013-11-21 17:49:00,
2013-11-21 12:04:00,30.0,28.7,30.25,NW,315,13.0,-999.0,95,-99.99,,,0.00,Acu-Link.com,2013-11-21 18:04:00,
2013-11-21 12:20:00,29.8,28.3,30.25,North,0,11.9,-999.0,94,-99.99,,,0.00,Acu-Link.com,2013-11-21 18:20:00,
2013-11-21 12:35:00,29.7,28.4,30.25,NNW,337,14.0,-999.0,95,-99.99,,,0.00,Acu-Link.com,2013-11-21 18:35:00,
2013-11-21 12:50:00,29.5,28.5,30.26,NNW,337,16.1,-999.0,96,-99.99,,,0.00,Acu-Link.com,2013-11-21 18:50:00,
2013-11-21 13:05:00,28.9,27.4,30.26,NW,315,14.5,-999.0,94,-99.99,,,0.00,Acu-Link.com,2013-11-21 19:05:00,
2013-11-21 13:20:00,28.8,27.3,30.26,NW,315,10.4,-999.0,94,-99.99,,,0.00,Acu-Link.com,2013-11-21 19:20:00,
2013-11-21 13:36:00,28.9,27.9,30.26,NNW,337,10.4,-999.0,96,-99.99,,,0.00,Acu-Link.com,2013-11-21 19:36:00,
2013-11-21 13:51:00,28.8,27.8,30.26,North,0,12.5,-999.0,96,-99.99,,,0.00,Acu-Link.com,2013-11-21 19:51:00,
2013-11-21 14:06:00,28.6,27.1,30.26,NNW,337,11.9,-999.0,94,-99.99,,,0.00,Acu-Link.com,2013-11-21 20:06:00,
2013-11-21 14:21:00,28.0,26.8,30.26,NW,315,9.4,-999.0,95,-99.99,,,0.00,Acu-Link.com,2013-11-21 20:21:00,
2013-11-21 14:36:00,27.9,26.7,30.26,NNW,337,12.5,-999.0,95,-99.99,,,0.00,Acu-Link.com,2013-11-21 20:36:00,
2013-11-21 14:52:00,27.3,25.8,30.27,NW,315,11.4,-999.0,94,-99.99,,,0.00,Acu-Link.com,2013-11-21 20:52:00,
2013-11-21 15:07:00,27.0,25.3,30.28,NW,315,10.4,-999.0,93,-99.99,,,0.00,Acu-Link.com,2013-11-21 21:07:00,
2013-11-21 15:22:00,26.8,24.5,30.28,WNW,292,11.9,-999.0,91,-99.99,,,0.00,Acu-Link.com,2013-11-21 21:22:00,
2013-11-21 15:38:00,26.4,23.9,30.29,NW,315,13.0,-999.0,90,-99.99,,,0.00,Acu-Link.com,2013-11-21 21:38:00,
2013-11-21 15:53:00,26.1,23.6,30.30,NW,315,9.9,-999.0,90,-99.99,,,0.00,Acu-Link.com,2013-11-21 21:53:00,
2013-11-21 16:08:00,26.1,23.3,30.32,NNW,337,11.4,-999.0,89,-99.99,,,0.00,Acu-Link.com,2013-11-21 22:08:00,
2013-11-21 16:23:00,26.1,22.8,30.33,NNW,337,16.6,-999.0,87,-99.99,,,0.00,Acu-Link.com,2013-11-21 22:23:00,
2013-11-21 16:39:00,25.9,22.6,30.34,North,0,11.4,-999.0,87,-99.99,,,0.00,Acu-Link.com,2013-11-21 22:39:00,
2013-11-21 16:54:00,25.9,23.1,30.35,NNW,337,11.9,-999.0,89,-99.99,,,0.00,Acu-Link.com,2013-11-21 22:54:00,
2013-11-21 17:09:00,25.7,22.9,30.35,NNW,337,10.9,-999.0,89,-99.99,,,0.00,Acu-Link.com,2013-11-21 23:09:00,
2013-11-21 17:24:00,25.5,23.0,30.36,NW,315,11.4,-999.0,90,-99.99,,,0.00,Acu-Link.com,2013-11-21 23:24:00,
2013-11-21 17:39:00,25.3,22.5,30.37,NW,315,13.5,-999.0,89,-99.99,,,0.00,Acu-Link.com,2013-11-21 23:39:00,
2013-11-21 17:54:00,25.2,23.5,30.38,NNW,337,4.7,-999.0,93,-99.99,,,0.00,Acu-Link.com,2013-11-21 23:54:00,
2013-11-21 18:10:00,25.2,22.9,30.39,NW,315,8.9,-999.0,91,-99.99,,,0.00,Acu-Link.com,2013-11-22 00:10:00,
2013-11-21 18:25:00,25.2,22.7,30.39,North,0,13.0,-999.0,90,-99.99,,,0.00,Acu-Link.com,2013-11-22 00:25:00,
2013-11-21 18:40:00,25.0,22.8,30.39,NW,315,11.4,-999.0,91,-99.99,,,0.00,Acu-Link.com,2013-11-22 00:40:00,
2013-11-21 18:55:00,24.8,22.8,30.40,NNW,337,11.9,-999.0,92,-99.99,,,0.00,Acu-Link.com,2013-11-22 00:55:00,
2013-11-21 19:10:00,24.8,22.8,30.41,NNW,337,8.3,-999.0,92,-99.99,,,0.00,Acu-Link.com,2013-11-22 01:10:00,
2013-11-21 19:26:00,24.8,22.8,30.42,NNW,337,14.0,-999.0,92,-99.99,,,0.00,Acu-Link.com,2013-11-22 01:26:00,
2013-11-21 19:41:00,25.0,23.0,30.43,NNW,337,11.4,-999.0,92,-99.99,,,0.00,Acu-Link.com,2013-11-22 01:41:00,
2013-11-21 19:56:00,25.0,23.0,30.45,NNW,337,8.3,-999.0,92,-99.99,,,0.00,Acu-Link.com,2013-11-22 01:56:00,
2013-11-21 20:11:00,25.2,23.7,30.45,NW,315,5.8,-999.0,94,-99.99,,,0.00,Acu-Link.com,2013-11-22 02:11:00,
2013-11-21 20:26:00,25.2,22.9,30.45,NNW,337,12.5,-999.0,91,-99.99,,,0.00,Acu-Link.com,2013-11-22 02:26:00,
2013-11-21 20:42:00,25.2,22.9,30.46,NW,315,7.3,-999.0,91,-99.99,,,0.00,Acu-Link.com,2013-11-22 02:42:00,
2013-11-21 20:57:00,24.8,23.1,30.47,NNW,337,8.3,-999.0,93,-99.99,,,0.00,Acu-Link.com,2013-11-22 02:57:00,
2013-11-21 21:12:00,24.6,23.1,30.48,NNW,337,6.3,-999.0,94,-99.99,,,0.00,Acu-Link.com,2013-11-22 03:12:00,
2013-11-21 21:27:00,24.4,23.2,30.48,NW,315,5.3,-999.0,95,-99.99,,,0.00,Acu-Link.com,2013-11-22 03:27:00,
2013-11-21 21:42:00,24.1,23.1,30.49,NW,315,9.4,-999.0,96,-99.99,,,0.00,Acu-Link.com,2013-11-22 03:42:00,
2013-11-21 21:57:00,23.9,22.7,30.50,NW,315,7.3,-999.0,95,-99.99,,,0.00,Acu-Link.com,2013-11-22 03:57:00,
2013-11-21 22:13:00,23.7,22.5,30.51,WNW,292,6.3,-999.0,95,-99.99,,,0.00,Acu-Link.com,2013-11-22 04:13:00,
2013-11-21 22:28:00,23.4,22.4,30.51,NW,315,6.8,-999.0,96,-99.99,,,0.00,Acu-Link.com,2013-11-22 04:28:00,
2013-11-21 22:43:00,23.2,21.7,30.51,NNW,337,6.8,-999.0,94,-99.99,,,0.00,Acu-Link.com,2013-11-22 04:43:00,
2013-11-21 22:58:00,23.0,21.8,30.51,WNW,292,6.8,-999.0,95,-99.99,,,0.00,Acu-Link.com,2013-11-22 04:58:00,
2013-11-21 23:13:00,22.8,21.3,30.53,NNW,337,5.8,-999.0,94,-99.99,,,0.00,Acu-Link.com,2013-11-22 05:13:00,
2013-11-21 23:29:00,22.6,21.4,30.54,NNW,337,9.4,-999.0,95,-99.99,,,0.00,Acu-Link.com,2013-11-22 05:29:00,
2013-11-21 23:44:00,22.3,20.6,30.53,NNW,337,10.4,-999.0,93,-99.99,,,0.00,Acu-Link.com,2013-11-22 05:44:00,
2013-11-21 23:59:00,22.3,20.3,30.55,NW,315,9.9,-999.0,92,-99.99,,,0.00,Acu-Link.com,2013-11-22 05:59:00,